Time;durP1;ratioP1;P1;durP2;ratioP2;P2;SDS_P1;SDS_P2;PMS_P1;PMS_P2;Temp;Humidity;BMP_temperature;BMP_pressure;BME280_temperature;BME280_humidity;BME280_pressure;Samples;Min_cycle;Max_cycle;Signal;HPM_P1;HPM_P2
2023/08/19 00:00:56;;;;;;;;;;;;;;;22.24;45.14;100724.59;4860629;28;98198;-73
2023/08/19 00:03:23;;;;;;;;;;;;;;;22.22;45.30;100724.13;4872528;28;98220;-73
2023/08/19 00:05:49;;;;;;;;;;;;;;;22.20;45.29;100722.84;4886630;28;98414;-73
2023/08/19 00:08:15;;;;;;;;;;;;;;;22.15;45.21;100723.88;4848716;28;99565;-70
2023/08/19 00:10:42;;;;;;;;;;;;;;;22.11;45.34;100717.41;4885492;28;98501;-73
2023/08/19 00:13:09;;;;;;;;;;;;;;;22.09;45.21;100722.47;4869898;28;98177;-71
2023/08/19 00:15:35;;;;;;;;;;;;;;;22.06;45.10;100725.88;4887283;28;98200;-72
2023/08/19 00:18:02;;;;;;;;;;;;;;;22.04;45.18;100723.44;4875534;28;98216;-73
2023/08/19 00:20:28;;;;;;;;;;;;;;;22.03;45.26;100732.81;4868910;28;98255;-72
2023/08/19 00:22:58;;;;;;;;;;;;;;;22.02;45.45;100733.19;4869641;28;98280;-71
2023/08/19 00:25:24;;;;;;;;;;;;;;;21.99;45.35;100736.59;4878671;28;98262;-73
2023/08/19 00:27:52;;;;;;;;;;;;;;;21.96;45.28;100729.03;4870529;28;99111;-72
2023/08/19 00:30:18;;;;;;;;;;;;;;;21.93;45.32;100732.44;4849229;28;99591;-73
2023/08/19 00:32:45;;;;;;;;;;;;;;;21.90;45.47;100727.66;4870768;28;98482;-71
2023/08/19 00:35:12;;;;;;;;;;;;;;;21.87;45.28;100726.38;4854651;28;98101;-72
2023/08/19 00:37:39;;;;;;;;;;;;;;;21.86;45.21;100726.72;4898500;28;98131;-73
2023/08/19 00:40:06;;;;;;;;;;;;;;;21.80;45.41;100721.41;4865888;28;99280;-71
2023/08/19 00:42:32;;;;;;;;;;;;;;;21.77;45.28;100724.03;4900934;28;99179;-73
2023/08/19 00:44:58;;;;;;;;;;;;;;;21.74;45.39;100719.25;4870299;28;98140;-72
2023/08/19 00:47:24;;;;;;;;;;;;;;;21.69;45.39;100716.69;4866882;28;98352;-71
2023/08/19 00:49:51;;;;;;;;;;;;;;;21.66;45.43;100718.19;4883051;28;98162;-73
2023/08/19 00:52:17;;;;;;;;;;;;;;;21.61;45.40;100723.03;4868899;28;98214;-72
2023/08/19 00:54:43;;;;;;;;;;;;;;;21.58;45.36;100721.78;4859868;28;98129;-73
2023/08/19 00:57:10;;;;;;;;;;;;;;;21.54;45.42;100713.44;4898321;28;98144;-71
2023/08/19 00:59:36;;;;;;;;;;;;;;;21.52;45.47;100712.97;4886828;28;100294;-71
2023/08/19 01:02:03;;;;;;;;;;;;;;;21.51;45.50;100713.31;4873688;28;98287;-71
2023/08/19 01:04:30;;;;;;;;;;;;;;;21.49;45.55;100708.13;4867510;28;100911;-73
2023/08/19 01:07:14;;;;;;;;;;;;;;;21.47;45.61;100712.38;4881785;28;98487;-71
2023/08/19 01:10:01;;;;;;;;;;;;;;;21.42;45.51;100705.16;4902936;28;99508;-71
2023/08/19 01:12:50;;;;;;;;;;;;;;;21.41;45.46;100709.00;4884402;28;98273;-71
2023/08/19 01:15:27;;;;;;;;;;;;;;;21.39;45.57;100713.25;4879730;28;98393;-71
2023/08/19 01:17:54;;;;;;;;;;;;;;;21.33;45.49;100707.13;4873080;28;97968;-73
2023/08/19 01:20:21;;;;;;;;;;;;;;;21.26;45.63;100713.13;4873112;28;98143;-72
2023/08/19 01:23:05;;;;;;;;;;;;;;;21.23;45.53;100715.75;4874434;28;98161;-71
2023/08/19 01:25:32;;;;;;;;;;;;;;;21.19;45.66;100712.84;4882983;28;98267;-73
2023/08/19 01:28:05;;;;;;;;;;;;;;;21.18;45.63;100710.44;4872841;28;98278;-71
2023/08/19 01:30:33;;;;;;;;;;;;;;;21.15;45.64;100708.38;4884229;28;98048;-72
2023/08/19 01:33:02;;;;;;;;;;;;;;;21.16;45.63;100701.75;4870371;28;98767;-72
2023/08/19 01:35:31;;;;;;;;;;;;;;;21.15;45.64;100700.16;4895001;28;98086;-72
2023/08/19 01:38:23;;;;;;;;;;;;;;;21.15;45.66;100713.88;4890421;28;98702;-71
2023/08/19 01:40:50;;;;;;;;;;;;;;;21.14;45.56;100713.03;4887156;28;97986;-71
2023/08/19 01:43:17;;;;;;;;;;;;;;;21.14;45.56;100717.72;4911013;28;98188;-71
2023/08/19 01:45:43;;;;;;;;;;;;;;;21.12;45.59;100717.25;4865497;28;98124;-73
2023/08/19 01:48:11;;;;;;;;;;;;;;;21.10;45.60;100720.31;4884317;28;97928;-71
2023/08/19 01:50:37;;;;;;;;;;;;;;;21.08;45.64;100719.84;4891111;28;98536;-71
2023/08/19 01:53:05;;;;;;;;;;;;;;;21.06;45.78;100717.47;4898109;28;97994;-73
2023/08/19 01:55:31;;;;;;;;;;;;;;;21.02;45.65;100713.75;4890437;28;98016;-72
2023/08/19 01:57:58;;;;;;;;;;;;;;;21.01;45.78;100720.38;4867279;28;98254;-71
2023/08/19 02:00:25;;;;;;;;;;;;;;;21.00;45.63;100718.78;4869317;28;97937;-71
2023/08/19 02:02:51;;;;;;;;;;;;;;;20.98;45.71;100712.81;4872174;28;99662;-71
2023/08/19 02:05:18;;;;;;;;;;;;;;;20.97;45.70;100713.94;4872146;28;98052;-71
2023/08/19 02:07:45;;;;;;;;;;;;;;;20.95;45.75;100707.22;4874219;28;98318;-73
2023/08/19 02:10:12;;;;;;;;;;;;;;;20.94;45.70;100709.13;4885586;28;98062;-71
2023/08/19 02:12:38;;;;;;;;;;;;;;;20.91;45.83;100707.06;4896421;28;98576;-73
2023/08/19 02:15:05;;;;;;;;;;;;;;;20.84;45.69;100698.56;4870756;28;99035;-73
2023/08/19 02:17:34;;;;;;;;;;;;;;;20.83;45.81;100711.47;4872154;28;97921;-72
2023/08/19 02:20:01;;;;;;;;;;;;;;;20.81;45.72;100701.97;4903963;28;98633;-72
2023/08/19 02:22:28;;;;;;;;;;;;;;;20.79;45.74;100702.31;4868315;28;98184;-72
2023/08/19 02:24:54;;;;;;;;;;;;;;;20.80;45.85;100708.56;4880774;28;98056;-72
2023/08/19 02:27:21;;;;;;;;;;;;;;;20.79;45.92;100712.47;4873629;28;98036;-72
2023/08/19 02:29:47;;;;;;;;;;;;;;;20.77;45.78;100709.22;4863673;28;97905;-72
2023/08/19 02:32:14;;;;;;;;;;;;;;;20.75;45.79;100700.53;4867266;28;98532;-72
2023/08/19 02:34:40;;;;;;;;;;;;;;;20.73;45.87;100702.81;4873462;28;98139;-73
2023/08/19 02:37:09;;;;;;;;;;;;;;;20.71;45.76;100705.06;4876242;28;98179;-73
2023/08/19 02:39:35;;;;;;;;;;;;;;;20.69;45.89;100693.66;4876520;28;98041;-72
2023/08/19 02:42:01;;;;;;;;;;;;;;;20.69;45.90;100699.13;4864987;28;98281;-72
2023/08/19 02:44:28;;;;;;;;;;;;;;;20.68;45.77;100697.53;4851493;28;98171;-72
2023/08/19 02:46:55;;;;;;;;;;;;;;;20.68;45.91;100698.31;4892997;28;97858;-73
2023/08/19 02:49:21;;;;;;;;;;;;;;;20.69;45.87;100701.88;4881770;28;98618;-71
2023/08/19 02:51:47;;;;;;;;;;;;;;;20.67;45.89;100695.91;4869806;28;98190;-71
2023/08/19 02:54:13;;;;;;;;;;;;;;;20.67;45.86;100701.38;4867353;28;98484;-73
2023/08/19 02:56:39;;;;;;;;;;;;;;;20.66;45.93;100708.00;4858314;28;98199;-71
2023/08/19 02:59:06;;;;;;;;;;;;;;;20.65;45.89;100711.88;4872288;28;98798;-72
2023/08/19 03:01:32;;;;;;;;;;;;;;;20.64;45.88;100708.34;4882938;28;98154;-72
2023/08/19 03:03:59;;;;;;;;;;;;;;;20.63;45.97;100703.16;4869910;28;98293;-72
2023/08/19 03:06:25;;;;;;;;;;;;;;;20.61;45.92;100706.25;4850877;28;98320;-72
2023/08/19 03:08:52;;;;;;;;;;;;;;;20.59;45.81;100703.84;4874801;28;98206;-72
2023/08/19 03:11:19;;;;;;;;;;;;;;;20.58;45.96;100706.91;4885738;28;98820;-72
2023/08/19 03:13:45;;;;;;;;;;;;;;;20.59;45.98;100705.75;4885362;28;99382;-72
2023/08/19 03:16:11;;;;;;;;;;;;;;;20.58;45.89;100699.47;4882180;28;98075;-71
2023/08/19 03:18:38;;;;;;;;;;;;;;;20.58;45.92;100695.94;4869006;28;98322;-73
2023/08/19 03:21:06;;;;;;;;;;;;;;;20.58;45.97;100702.22;4887447;28;117877;-73
2023/08/19 03:23:32;;;;;;;;;;;;;;;20.57;45.87;100705.28;4862630;28;98544;-73
2023/08/19 03:25:59;;;;;;;;;;;;;;;20.57;45.91;100713.50;4878385;28;97945;-73
2023/08/19 03:28:26;;;;;;;;;;;;;;;20.55;46.20;100713.03;4887823;28;99662;-72
2023/08/19 03:30:52;;;;;;;;;;;;;;;20.53;45.93;100716.09;4887739;28;100244;-73
2023/08/19 03:33:20;;;;;;;;;;;;;;;20.49;46.04;100717.09;4862296;28;99413;-72
2023/08/19 03:35:46;;;;;;;;;;;;;;;20.43;46.06;100724.63;4871874;28;98270;-73
2023/08/19 03:38:13;;;;;;;;;;;;;;;20.39;46.09;100723.69;4867449;28;98433;-72
2023/08/19 03:40:40;;;;;;;;;;;;;;;20.37;46.10;100714.22;4858528;28;98819;-73
2023/08/19 03:43:08;;;;;;;;;;;;;;;20.34;46.19;100719.19;4869321;28;98506;-72
2023/08/19 03:45:34;;;;;;;;;;;;;;;20.32;46.09;100729.69;4895368;28;98148;-72
2023/08/19 03:48:01;;;;;;;;;;;;;;;20.30;46.10;100729.19;4886386;28;98068;-72
2023/08/19 03:50:28;;;;;;;;;;;;;;;20.28;46.10;100728.72;4868347;28;98473;-72
2023/08/19 03:52:55;;;;;;;;;;;;;;;20.26;46.06;100722.75;4867843;28;98180;-73
2023/08/19 03:55:22;;;;;;;;;;;;;;;20.25;46.07;100725.84;4881379;28;98304;-73
2023/08/19 03:57:50;;;;;;;;;;;;;;;20.27;46.10;100723.56;4866465;28;98300;-71
2023/08/19 04:00:16;;;;;;;;;;;;;;;20.32;46.17;100726.13;4871180;28;98339;-71
2023/08/19 04:02:42;;;;;;;;;;;;;;;20.39;46.15;100740.09;4866962;28;119843;-71
2023/08/19 04:05:12;;;;;;;;;;;;;;;20.42;46.12;100735.91;4912651;28;98309;-72
2023/08/19 04:07:38;;;;;;;;;;;;;;;20.47;46.12;100749.41;4872131;28;100103;-71
2023/08/19 04:10:05;;;;;;;;;;;;;;;20.50;46.11;100740.59;4854391;28;98120;-72
2023/08/19 04:12:30;;;;;;;;;;;;;;;;;;4882769;28;99103;-73
2023/08/19 04:14:57;;;;;;;;;;;;;;;20.55;45.99;100743.13;4899178;28;98041;-73
2023/08/19 04:17:23;;;;;;;;;;;;;;;20.58;45.96;100742.50;4873419;28;98555;-73
2023/08/19 04:19:49;;;;;;;;;;;;;;;20.60;46.08;100751.19;4865734;28;98120;-72
2023/08/19 04:22:15;;;;;;;;;;;;;;;20.63;46.09;100750.53;4873626;28;99468;-72
2023/08/19 04:24:42;;;;;;;;;;;;;;;20.64;46.01;100743.94;4886954;28;98314;-73
2023/08/19 04:27:08;;;;;;;;;;;;;;;20.66;45.96;100746.34;4855474;28;97952;-72
2023/08/19 04:29:34;;;;;;;;;;;;;;;20.67;46.14;100750.66;4873947;28;98014;-73
2023/08/19 04:32:01;;;;;;;;;;;;;;;20.68;45.96;100758.56;4850488;28;99010;-72
2023/08/19 04:34:29;;;;;;;;;;;;;;;20.72;45.97;100758.72;4874531;28;99923;-72
2023/08/19 04:36:55;;;;;;;;;;;;;;;20.76;46.01;100754.19;4880724;28;98327;-71
2023/08/19 04:39:22;;;;;;;;;;;;;;;20.78;45.95;100755.44;4888754;28;98313;-72
2023/08/19 04:41:50;;;;;;;;;;;;;;;20.81;45.97;100759.47;4901624;28;98192;-72
2023/08/19 04:44:16;;;;;;;;;;;;;;;20.86;45.92;100756.56;4873493;28;98550;-71
2023/08/19 04:46:43;;;;;;;;;;;;;;;20.91;45.92;100761.88;4878812;28;98354;-72
2023/08/19 04:49:10;;;;;;;;;;;;;;;20.97;45.83;100770.69;4872870;28;98338;-71
2023/08/19 04:51:36;;;;;;;;;;;;;;;21.01;45.86;100769.69;4868770;28;98329;-71
2023/08/19 04:54:03;;;;;;;;;;;;;;;21.06;45.84;100769.53;4889292;28;98110;-73
2023/08/19 04:56:29;;;;;;;;;;;;;;;21.10;45.75;100766.91;4894140;28;99259;-73
2023/08/19 04:58:56;;;;;;;;;;;;;;;21.15;45.84;100765.94;4867116;28;98288;-73
2023/08/19 05:01:23;;;;;;;;;;;;;;;21.19;45.78;100764.94;4897614;28;98417;-72
2023/08/19 05:03:49;;;;;;;;;;;;;;;21.23;45.68;100765.88;4867943;28;98278;-72
2023/08/19 05:06:15;;;;;;;;;;;;;;;21.28;45.58;100770.34;4873034;28;98735;-73
2023/08/19 05:08:43;;;;;;;;;;;;;;;21.31;45.70;100775.97;4888794;28;98079;-73
2023/08/19 05:11:09;;;;;;;;;;;;;;;21.34;45.78;100771.81;4880176;28;98565;-74
2023/08/19 05:13:37;;;;;;;;;;;;;;;21.38;45.79;100775.50;4876247;28;100280;-74
2023/08/19 05:16:04;;;;;;;;;;;;;;;21.43;45.83;100774.50;4891923;28;98166;-73
2023/08/19 05:18:30;;;;;;;;;;;;;;;21.51;45.79;100776.38;4880470;28;99727;-73
2023/08/19 05:20:57;;;;;;;;;;;;;;;21.58;45.63;100781.34;4867812;28;98165;-74
2023/08/19 05:23:23;;;;;;;;;;;;;;;21.65;45.54;100782.38;4871188;28;99858;-73
2023/08/19 05:25:49;;;;;;;;;;;;;;;21.70;45.74;100781.41;4866940;28;98142;-73
2023/08/19 05:28:16;;;;;;;;;;;;;;;21.76;45.54;100780.84;4884160;28;98316;-73
2023/08/19 05:30:42;;;;;;;;;;;;;;;21.86;45.44;100782.38;4867574;28;99419;-73
2023/08/19 05:33:08;;;;;;;;;;;;;;;21.96;45.32;100786.66;4861547;28;99056;-73
2023/08/19 05:35:34;;;;;;;;;;;;;;;22.04;45.47;100791.25;4854670;28;98344;-73
2023/08/19 05:38:01;;;;;;;;;;;;;;;22.13;45.45;100786.53;4874969;28;99311;-73
2023/08/19 05:40:27;;;;;;;;;;;;;;;22.24;45.32;100792.41;4849051;28;99001;-73
2023/08/19 05:42:53;;;;;;;;;;;;;;;22.34;45.13;100791.97;4865000;28;98264;-73
2023/08/19 05:45:20;;;;;;;;;;;;;;;22.44;45.12;100788.00;4847858;28;98780;-73
2023/08/19 05:47:46;;;;;;;;;;;;;;;22.55;45.19;100789.16;4883260;28;98034;-73
2023/08/19 05:50:13;;;;;;;;;;;;;;;22.65;45.26;100791.47;4849637;28;98355;-70
2023/08/19 05:52:40;;;;;;;;;;;;;;;22.77;45.10;100787.94;4869060;28;98540;-73
2023/08/19 05:55:06;;;;;;;;;;;;;;;22.89;44.96;100790.72;4864877;28;98558;-73
2023/08/19 05:57:33;;;;;;;;;;;;;;;23.05;45.06;100793.59;4892946;28;98139;-73
2023/08/19 05:59:59;;;;;;;;;;;;;;;23.20;44.92;100794.88;4885188;28;98033;-73
2023/08/19 06:02:26;;;;;;;;;;;;;;;23.36;44.60;100792.22;4882602;28;98458;-72
2023/08/19 06:04:52;;;;;;;;;;;;;;;23.53;44.41;100798.25;4875414;28;100385;-73
2023/08/19 06:07:25;;;;;;;;;;;;;;;23.68;44.42;100788.50;4847018;28;98475;-72
2023/08/19 06:09:52;;;;;;;;;;;;;;;23.86;44.61;100789.03;4888223;28;98133;-73
2023/08/19 06:12:18;;;;;;;;;;;;;;;24.03;44.55;100800.91;4878984;28;98033;-73
2023/08/19 06:14:44;;;;;;;;;;;;;;;24.16;44.50;100797.72;4895439;28;98206;-72
2023/08/19 06:17:10;;;;;;;;;;;;;;;24.31;44.40;100804.44;4860110;28;99451;-72
2023/08/19 06:19:37;;;;;;;;;;;;;;;24.49;44.30;100800.25;4885849;28;98580;-72
2023/08/19 06:22:03;;;;;;;;;;;;;;;24.67;43.96;100803.44;4885381;28;98412;-73
2023/08/19 06:24:30;;;;;;;;;;;;;;;24.85;43.89;100801.16;4865779;28;98439;-73
2023/08/19 06:26:57;;;;;;;;;;;;;;;25.01;43.69;100811.38;4884238;28;98057;-76
2023/08/19 06:29:24;;;;;;;;;;;;;;;25.20;43.94;100801.25;4881423;28;98182;-75
2023/08/19 06:31:50;;;;;;;;;;;;;;;25.33;43.72;100801.94;4882331;28;99203;-74
2023/08/19 06:34:17;;;;;;;;;;;;;;;25.56;43.69;100802.03;4874430;28;98210;-75
2023/08/19 06:36:44;;;;;;;;;;;;;;;25.83;43.64;100805.00;4883478;28;98049;-74
2023/08/19 06:39:18;;;;;;;;;;;;;;;26.14;43.35;100804.06;4864072;28;98654;-76
2023/08/19 06:41:45;;;;;;;;;;;;;;;26.44;43.08;100807.78;4878677;28;98759;-74
2023/08/19 06:44:11;;;;;;;;;;;;;;;26.79;42.96;100811.59;4864057;28;99048;-74
2023/08/19 06:46:38;;;;;;;;;;;;;;;27.59;42.01;100809.69;4878004;28;98122;-76
2023/08/19 06:49:04;;;;;;;;;;;;;;;29.94;39.67;100807.47;4868330;28;101259;-74
2023/08/19 06:51:31;;;;;;;;;;;;;;;32.09;37.57;100811.00;4882452;28;99204;-75
2023/08/19 06:53:57;;;;;;;;;;;;;;;33.17;37.01;100809.84;4875945;28;98164;-75
2023/08/19 06:56:29;;;;;;;;;;;;;;;34.28;36.28;100816.16;4884194;28;99042;-75
2023/08/19 06:59:02;;;;;;;;;;;;;;;36.09;35.32;100822.56;4883621;28;98219;-76
2023/08/19 07:01:30;;;;;;;;;;;;;;;37.23;34.67;100810.59;4865713;28;99118;-73
2023/08/19 07:03:57;;;;;;;;;;;;;;;38.08;34.69;100812.97;4883874;28;98827;-74
2023/08/19 07:06:24;;;;;;;;;;;;;;;39.85;33.71;100813.00;4862464;28;98183;-73
2023/08/19 07:08:51;;;;;;;;;;;;;;;40.09;33.75;100818.13;4882667;28;98313;-74
2023/08/19 07:11:18;;;;;;;;;;;;;;;38.01;36.26;100802.75;4875955;28;98169;-75
2023/08/19 07:13:44;;;;;;;;;;;;;;;37.24;37.65;100798.13;4865410;28;99741;-75
2023/08/19 07:16:12;;;;;;;;;;;;;;;36.97;37.87;100802.03;4886351;28;98173;-74
2023/08/19 07:18:40;;;;;;;;;;;;;;;36.76;38.49;100796.94;4878457;28;98120;-75
2023/08/19 07:21:12;;;;;;;;;;;;;;;36.46;38.79;100793.25;4868328;28;98975;-74
2023/08/19 07:23:39;;;;;;;;;;;;;;;35.99;39.15;100793.50;4878591;28;100795;-74
2023/08/19 07:26:06;;;;;;;;;;;;;;;35.51;39.90;100799.72;4866340;28;100149;-75
2023/08/19 07:28:32;;;;;;;;;;;;;;;34.63;40.97;100790.44;4847720;28;98132;-74
2023/08/19 07:30:59;;;;;;;;;;;;;;;34.41;40.93;100795.56;4876338;28;98255;-74
2023/08/19 07:33:26;;;;;;;;;;;;;;;34.96;39.94;100799.06;4846412;28;99491;-74
2023/08/19 07:35:53;;;;;;;;;;;;;;;35.18;39.97;100796.72;4866715;28;98094;-74
2023/08/19 07:38:19;;;;;;;;;;;;;;;35.28;40.06;100808.94;4863990;28;98235;-75
2023/08/19 07:40:45;;;;;;;;;;;;;;;35.04;40.30;100808.19;4883722;28;98150;-74
2023/08/19 07:43:12;;;;;;;;;;;;;;;34.97;40.29;100811.06;4870829;28;98845;-74
2023/08/19 07:45:38;;;;;;;;;;;;;;;35.26;40.18;100806.56;4866311;28;98564;-75
2023/08/19 07:48:04;;;;;;;;;;;;;;;35.81;39.60;100807.91;4869868;28;98107;-74
2023/08/19 07:50:30;;;;;;;;;;;;;;;36.28;39.25;100804.88;4886810;28;98208;-75
2023/08/19 07:52:56;;;;;;;;;;;;;;;36.66;39.05;100821.22;4883360;28;98182;-75
2023/08/19 07:55:24;;;;;;;;;;;;;;;36.46;39.35;100815.69;4867493;28;98186;-74
2023/08/19 07:57:51;;;;;;;;;;;;;;;35.76;40.57;100814.00;4865950;28;98565;-75
2023/08/19 08:00:18;;;;;;;;;;;;;;;35.68;40.45;100811.78;4859203;28;98254;-74
2023/08/19 08:02:44;;;;;;;;;;;;;;;35.88;40.21;100812.53;4865558;28;98574;-75
2023/08/19 08:05:11;;;;;;;;;;;;;;;36.38;39.90;100814.25;4866530;28;98970;-75
2023/08/19 08:07:37;;;;;;;;;;;;;;;36.86;39.57;100810.72;4892382;28;98559;-75
2023/08/19 08:10:04;;;;;;;;;;;;;;;37.67;38.75;100811.78;4900049;28;98067;-75
2023/08/19 08:12:31;;;;;;;;;;;;;;;38.51;37.94;100814.47;4876965;28;100396;-77
2023/08/19 08:15:02;;;;;;;;;;;;;;;39.33;37.23;100811.69;4869874;28;98405;-79
2023/08/19 08:17:30;;;;;;;;;;;;;;;40.10;36.93;100808.44;4881687;28;97995;-78
2023/08/19 08:19:57;;;;;;;;;;;;;;;39.43;37.79;100804.13;4894220;28;98820;-77
2023/08/19 08:22:23;;;;;;;;;;;;;;;37.93;39.88;100800.63;4862405;28;98323;-77
2023/08/19 08:24:50;;;;;;;;;;;;;;;39.70;37.64;100798.69;4878879;28;98484;-77
2023/08/19 08:27:16;;;;;;;;;;;;;;;41.01;36.39;100802.31;4891795;28;98675;-77
2023/08/19 08:29:43;;;;;;;;;;;;;;;42.04;35.68;100808.13;4882608;28;98855;-77
2023/08/19 08:32:09;;;;;;;;;;;;;;;43.09;35.32;100810.25;4847822;28;98441;-77
2023/08/19 08:34:36;;;;;;;;;;;;;;;43.91;34.78;100796.56;4862643;28;98013;-76
2023/08/19 08:37:03;;;;;;;;;;;;;;;44.44;34.30;100796.31;4882732;28;98060;-78
2023/08/19 08:39:30;;;;;;;;;;;;;;;45.00;34.54;100796.25;4879956;28;98225;-76
2023/08/19 08:41:56;;;;;;;;;;;;;;;45.58;34.52;100799.25;4868074;28;99818;-77
2023/08/19 08:44:22;;;;;;;;;;;;;;;46.04;34.00;100796.28;4853483;28;98540;-77
2023/08/19 08:46:48;;;;;;;;;;;;;;;46.30;34.07;100784.00;4889588;28;98252;-77
2023/08/19 08:49:14;;;;;;;;;;;;;;;46.51;34.58;100791.13;4881070;28;102607;-76
2023/08/19 08:51:41;;;;;;;;;;;;;;;46.96;34.30;100789.28;4867090;28;98832;-78
2023/08/19 08:54:08;;;;;;;;;;;;;;;47.45;33.85;100789.91;4864665;28;99629;-76
2023/08/19 08:56:35;;;;;;;;;;;;;;;48.04;33.49;100785.22;4846050;28;103759;-76
2023/08/19 08:59:01;;;;;;;;;;;;;;;48.19;33.64;100787.81;4881518;28;99331;-76
2023/08/19 09:01:27;;;;;;;;;;;;;;;48.52;33.73;100786.19;4867085;28;98137;-75
2023/08/19 09:04:03;;;;;;;;;;;;;;;48.85;33.66;100786.03;4873386;28;98554;-77
2023/08/19 09:06:29;;;;;;;;;;;;;;;49.29;33.29;100787.09;4876450;28;99279;-77
2023/08/19 09:09:00;;;;;;;;;;;;;;;49.65;33.17;100792.81;4863705;28;98353;-77
2023/08/19 09:11:27;;;;;;;;;;;;;;;49.68;33.42;100788.88;4898711;28;103802;-77
2023/08/19 09:13:58;;;;;;;;;;;;;;;49.91;33.35;100780.88;4879572;28;98272;-75
2023/08/19 09:16:24;;;;;;;;;;;;;;;49.91;33.24;100791.53;4858656;28;98479;-75
2023/08/19 09:18:51;;;;;;;;;;;;;;;50.20;33.17;100789.97;4877780;28;98524;-77
2023/08/19 09:21:17;;;;;;;;;;;;;;;50.39;33.41;100781.41;4880047;28;98059;-74
2023/08/19 09:23:44;;;;;;;;;;;;;;;49.69;33.72;100778.97;4895587;28;98469;-77
2023/08/19 09:26:11;;;;;;;;;;;;;;;48.91;34.43;100772.50;4885021;28;98394;-74
2023/08/19 09:28:37;;;;;;;;;;;;;;;48.42;35.08;100775.06;4864591;28;98275;-74
2023/08/19 09:31:20;;;;;;;;;;;;;;;48.19;35.26;100770.69;4846445;28;98661;-74
2023/08/19 09:33:47;;;;;;;;;;;;;;;48.35;35.10;100769.84;4872104;28;100202;-78
2023/08/19 09:36:14;;;;;;;;;;;;;;;49.03;34.51;100769.56;4869054;28;99085;-76
2023/08/19 09:38:40;;;;;;;;;;;;;;;49.84;33.80;100770.03;4901993;28;99239;-75
2023/08/19 09:41:10;;;;;;;;;;;;;;;50.48;33.09;100773.22;4894739;28;102148;-75
2023/08/19 09:43:40;;;;;;;;;;;;;;;51.30;32.25;100766.13;4885417;28;98590;-77
2023/08/19 09:46:08;;;;;;;;;;;;;;;51.72;32.47;100762.78;4884147;28;100783;-77
2023/08/19 09:48:35;;;;;;;;;;;;;;;51.86;32.22;100764.38;4863661;28;98585;-77
2023/08/19 09:51:02;;;;;;;;;;;;;;;52.13;31.96;100756.56;4868222;28;98199;-75
2023/08/19 09:53:31;;;;;;;;;;;;;;;52.20;32.39;100749.38;4858697;28;99626;-77
2023/08/19 09:55:58;;;;;;;;;;;;;;;52.48;32.17;100743.06;4866423;28;98718;-78
2023/08/19 09:58:25;;;;;;;;;;;;;;;52.62;32.23;100744.59;4867358;28;98681;-75
2023/08/19 10:00:51;;;;;;;;;;;;;;;52.91;31.93;100751.28;4880206;28;98573;-75
2023/08/19 10:03:17;;;;;;;;;;;;;;;52.92;32.05;100749.16;4881064;28;99282;-78
2023/08/19 10:05:44;;;;;;;;;;;;;;;52.64;32.37;100746.91;4866612;28;99389;-79
2023/08/19 10:08:23;;;;;;;;;;;;;;;52.79;31.94;100747.09;4883044;28;98611;-75
2023/08/19 10:10:49;;;;;;;;;;;;;;;52.85;32.23;100747.72;4853799;28;97869;-75
2023/08/19 10:13:15;;;;;;;;;;;;;;;52.99;31.88;100746.38;4881720;28;99801;-76
2023/08/19 10:15:42;;;;;;;;;;;;;;;53.09;31.83;100749.53;4885315;28;99708;-75
2023/08/19 10:18:15;;;;;;;;;;;;;;;52.69;32.09;100746.00;4868031;28;98920;-75
2023/08/19 10:20:43;;;;;;;;;;;;;;;52.54;32.56;100737.19;4869084;28;99716;-79
2023/08/19 10:23:10;;;;;;;;;;;;;;;52.48;32.13;100738.09;4868236;28;98345;-75
2023/08/19 10:25:36;;;;;;;;;;;;;;;52.32;32.25;100724.09;4880316;28;98185;-75
2023/08/19 10:28:24;;;;;;;;;;;;;;;51.21;33.49;100725.53;4868628;28;98357;-75
2023/08/19 10:31:13;;;;;;;;;;;;;;;51.25;32.92;100723.94;4877466;28;99741;-76
2023/08/19 10:33:44;;;;;;;;;;;;;;;51.37;32.85;100732.34;4879880;28;99816;-73
2023/08/19 10:36:14;;;;;;;;;;;;;;;48.25;35.92;100728.59;4899247;28;98553;-77
2023/08/19 10:38:48;;;;;;;;;;;;;;;46.14;37.67;100719.97;4874319;28;97989;-72
2023/08/19 10:41:50;;;;;;;;;;;;;;;46.34;37.23;100721.91;4867951;28;98225;-73
2023/08/19 10:44:19;;;;;;;;;;;;;;;48.33;34.27;100728.81;4825301;28;98433;-76
2023/08/19 10:46:47;;;;;;;;;;;;;;;48.84;34.01;100726.53;4825947;28;99143;-73
2023/08/19 10:49:18;;;;;;;;;;;;;;;49.25;33.77;100729.41;4881776;28;98249;-72
2023/08/19 10:52:00;;;;;;;;;;;;;;;49.60;33.22;100728.59;4865373;28;98348;-76
2023/08/19 10:54:26;;;;;;;;;;;;;;;49.83;33.06;100736.94;4881888;28;98098;-77
2023/08/19 10:57:15;;;;;;;;;;;;;;;49.85;33.52;100723.66;4911625;28;98318;-74
2023/08/19 10:59:46;;;;;;;;;;;;;;;49.83;33.06;100728.34;4899885;28;98791;-77
2023/08/19 11:02:12;;;;;;;;;;;;;;;49.83;33.01;100726.25;4888483;28;100698;-77
2023/08/19 11:04:42;;;;;;;;;;;;;;;50.00;32.69;100728.97;4867134;28;98605;-76
2023/08/19 11:07:09;;;;;;;;;;;;;;;49.87;32.98;100720.25;4865172;28;98080;-73
2023/08/19 11:09:35;;;;;;;;;;;;;;;49.78;32.90;100715.66;4866336;28;98685;-73
2023/08/19 11:12:02;;;;;;;;;;;;;;;49.76;33.09;100709.69;4865198;28;98132;-73
2023/08/19 11:14:29;;;;;;;;;;;;;;;49.84;33.11;100716.41;4886629;28;98309;-77
2023/08/19 11:16:56;;;;;;;;;;;;;;;49.68;33.12;100723.06;4871787;28;99549;-73
2023/08/19 11:19:22;;;;;;;;;;;;;;;49.43;33.48;100719.34;4867260;28;98126;-75
2023/08/19 11:21:48;;;;;;;;;;;;;;;49.25;33.35;100712.22;4882930;28;98154;-76
2023/08/19 11:24:14;;;;;;;;;;;;;;;48.96;33.85;100712.94;4869023;28;98232;-73
2023/08/19 11:26:41;;;;;;;;;;;;;;;48.33;34.34;100709.59;4877127;28;98176;-77
2023/08/19 11:29:07;;;;;;;;;;;;;;;47.97;34.45;100711.53;4898662;28;98454;-73
2023/08/19 11:31:34;;;;;;;;;;;;;;;47.62;34.82;100714.94;4881457;28;115143;-77
2023/08/19 11:34:00;;;;;;;;;;;;;;;47.46;34.52;100705.09;4878700;28;98010;-77
2023/08/19 11:36:26;;;;;;;;;;;;;;;47.35;34.65;100705.09;4858473;28;129317;-73
2023/08/19 11:38:56;;;;;;;;;;;;;;;47.46;34.41;100710.81;4863015;28;99285;-77
2023/08/19 11:41:22;;;;;;;;;;;;;;;47.51;34.55;100709.25;4868651;28;98397;-73
2023/08/19 11:43:50;;;;;;;;;;;;;;;47.45;34.65;100703.56;4881980;28;97975;-76
2023/08/19 11:46:16;;;;;;;;;;;;;;;47.47;34.44;100700.94;4847227;28;98375;-73
2023/08/19 11:48:43;;;;;;;;;;;;;;;47.46;34.66;100705.09;4835919;28;98628;-76
2023/08/19 11:51:10;;;;;;;;;;;;;;;47.44;34.32;100704.84;4865093;28;128209;-73
2023/08/19 11:53:37;;;;;;;;;;;;;;;47.26;34.42;100699.63;4886556;28;98536;-72
2023/08/19 11:56:03;;;;;;;;;;;;;;;47.06;34.79;100704.28;4881929;28;98697;-72
2023/08/19 11:58:50;;;;;;;;;;;;;;;46.72;35.38;100707.03;4860342;28;98144;-76
2023/08/19 12:01:26;;;;;;;;;;;;;;;46.69;35.09;100699.53;4862371;28;98406;-76
2023/08/19 12:03:54;;;;;;;;;;;;;;;46.63;35.06;100706.50;4866597;28;99381;-71
2023/08/19 12:06:20;;;;;;;;;;;;;;;46.56;34.97;100707.75;4868143;28;98198;-72
2023/08/19 12:08:49;;;;;;;;;;;;;;;46.54;35.34;100701.78;4866037;28;118421;-77
2023/08/19 12:11:23;;;;;;;;;;;;;;;46.44;35.20;100704.06;4891069;28;99203;-71
2023/08/19 12:13:50;;;;;;;;;;;;;;;46.26;35.42;100705.31;4879192;28;98737;-76
2023/08/19 12:16:16;;;;;;;;;;;;;;;46.11;35.42;100704.69;4877785;28;98700;-73
2023/08/19 12:18:42;;;;;;;;;;;;;;;45.91;35.69;100697.09;4864511;28;98288;-72
2023/08/19 12:21:08;;;;;;;;;;;;;;;45.71;36.00;100697.16;4878290;28;102115;-76
2023/08/19 12:23:34;;;;;;;;;;;;;;;45.59;35.69;100695.53;4858731;28;99271;-76
2023/08/19 12:26:01;;;;;;;;;;;;;;;45.46;35.67;100693.13;4875577;28;116520;-75
2023/08/19 12:28:28;;;;;;;;;;;;;;;45.36;35.82;100701.03;4858462;28;97886;-72
2023/08/19 12:30:55;;;;;;;;;;;;;;;45.24;35.65;100703.00;4872453;28;100614;-75
2023/08/19 12:33:21;;;;;;;;;;;;;;;45.11;36.03;100702.59;4861633;28;99181;-74
2023/08/19 12:35:48;;;;;;;;;;;;;;;45.01;35.94;100701.97;4859517;28;98313;-71
2023/08/19 12:38:15;;;;;;;;;;;;;;;44.89;36.08;100700.31;4878154;28;98301;-72